Time;durP1;ratioP1;P1;durP2;ratioP2;P2;SDS_P1;SDS_P2;PMS_P1;PMS_P2;Temp;Humidity;BMP_temperature;BMP_pressure;BME280_temperature;BME280_humidity;BME280_pressure;Samples;Min_cycle;Max_cycle;Signal;HPM_P1;HPM_P2
2021/03/22 00:00:25;;;;;;;13.63;3.57;;;4.70;99.90;;;;;;4955749;28;20910;-64
2021/03/22 00:03:03;;;;;;;11.07;4.00;;;4.70;99.90;;;;;;4967951;28;20651;-64
2021/03/22 00:05:28;;;;;;;13.40;4.67;;;4.70;99.90;;;;;;4953733;28;20631;-64
2021/03/22 00:08:05;;;;;;;14.43;4.40;;;4.70;99.90;;;;;;4954023;28;21296;-64
2021/03/22 00:10:48;;;;;;;12.83;4.20;;;4.70;99.90;;;;;;4957226;28;20186;-64
2021/03/22 00:13:23;;;;;;;14.00;3.77;;;4.70;99.90;;;;;;4949910;28;20652;-63
2021/03/22 00:16:00;;;;;;;14.43;4.33;;;4.60;99.90;;;;;;4946831;28;20982;-64
2021/03/22 00:18:31;;;;;;;18.00;4.80;;;4.60;99.90;;;;;;4959548;28;20780;-64
2021/03/22 00:21:01;;;;;;;12.03;4.50;;;4.50;99.90;;;;;;4954121;28;20736;-64
2021/03/22 00:23:32;;;;;;;14.50;4.00;;;4.50;99.90;;;;;;4956753;28;20659;-64
2021/03/22 00:26:00;;;;;;;16.93;4.83;;;4.50;99.90;;;;;;4958324;28;20648;-64
2021/03/22 00:28:43;;;;;;;8.57;4.27;;;4.50;99.90;;;;;;4956956;28;20837;-65
2021/03/22 00:31:14;;;;;;;10.57;4.20;;;4.50;99.90;;;;;;4960465;28;20705;-67
2021/03/22 00:33:45;;;;;;;11.23;4.00;;;4.50;99.90;;;;;;4949198;28;20639;-65
2021/03/22 00:36:21;;;;;;;11.93;4.27;;;4.60;99.90;;;;;;4967896;28;20619;-64
2021/03/22 00:38:56;;;;;;;17.53;4.83;;;4.40;99.90;;;;;;4983831;28;20639;-64
2021/03/22 00:41:27;;;;;;;17.73;4.63;;;4.40;99.90;;;;;;4985364;28;20616;-66
2021/03/22 00:43:56;;;;;;;14.03;6.27;;;4.40;99.90;;;;;;4964574;28;21200;-63
2021/03/22 00:46:26;;;;;;;13.77;5.00;;;4.40;99.90;;;;;;4969783;28;20750;-64
2021/03/22 00:48:54;;;;;;;17.10;4.70;;;4.40;99.90;;;;;;4964048;28;20623;-64
2021/03/22 00:51:25;;;;;;;13.07;6.00;;;4.30;99.90;;;;;;4960411;28;20635;-64
2021/03/22 00:53:55;;;;;;;14.50;4.00;;;4.30;99.90;;;;;;4975753;28;23467;-64
2021/03/22 00:56:39;;;;;;;18.77;5.03;;;4.20;99.90;;;;;;4962920;28;20612;-65
2021/03/22 00:59:12;;;;;;;8.67;3.30;;;4.30;99.90;;;;;;4965076;28;20607;-66
2021/03/22 01:01:43;;;;;;;16.10;4.40;;;4.20;99.90;;;;;;4965985;28;20791;-64
2021/03/22 01:04:13;;;;;;;9.50;4.13;;;4.20;99.90;;;;;;4932775;28;20651;-64
2021/03/22 01:06:41;;;;;;;12.97;4.80;;;4.20;99.90;;;;;;4963205;28;20642;-64
2021/03/22 01:09:09;;;;;;;7.53;4.00;;;4.20;99.90;;;;;;4967320;28;20712;-64
2021/03/22 01:11:35;;;;;;;16.83;4.40;;;4.30;99.90;;;;;;4962122;28;22332;-63
2021/03/22 01:14:08;;;;;;;14.67;4.47;;;4.30;99.90;;;;;;4961215;28;20651;-63
2021/03/22 01:16:38;;;;;;;14.47;3.77;;;4.30;99.90;;;;;;4955514;28;20369;-63
2021/03/22 01:19:25;;;;;;;9.77;3.70;;;4.30;99.90;;;;;;4962866;28;21147;-64
2021/03/22 01:22:16;;;;;;;13.70;4.23;;;4.30;99.90;;;;;;4962839;28;21001;-64
2021/03/22 01:24:57;;;;;;;21.43;4.80;;;4.20;99.90;;;;;;4964207;28;21298;-64
2021/03/22 01:27:25;;;;;;;13.87;4.30;;;4.10;99.90;;;;;;4971773;28;21236;-64
2021/03/22 01:29:53;;;;;;;17.30;4.97;;;4.10;99.90;;;;;;4949490;28;20636;-66
2021/03/22 01:32:19;;;;;;;11.13;3.70;;;4.10;99.90;;;;;;4951383;28;20640;-64
2021/03/22 01:34:52;;;;;;;14.30;4.50;;;4.00;99.90;;;;;;4963181;28;20632;-64
2021/03/22 01:37:18;;;;;;;9.30;3.93;;;4.00;99.90;;;;;;4956115;28;20213;-64
2021/03/22 01:39:48;;;;;;;16.23;5.43;;;4.00;99.90;;;;;;4968540;28;20635;-64
2021/03/22 01:42:43;;;;;;;12.47;4.50;;;3.90;99.90;;;;;;4953188;28;20234;-64
2021/03/22 01:45:13;;;;;;;20.87;4.73;;;3.90;99.90;;;;;;4959826;28;20624;-64
2021/03/22 01:47:53;;;;;;;12.93;5.03;;;3.90;99.90;;;;;;4957497;28;20690;-64
2021/03/22 01:50:29;;;;;;;14.37;4.20;;;3.80;99.90;;;;;;4973787;28;21238;-63
2021/03/22 01:53:06;;;;;;;13.13;3.90;;;3.90;99.90;;;;;;4953724;28;21196;-63
2021/03/22 01:55:33;;;;;;;10.30;3.40;;;3.80;99.90;;;;;;4953676;28;23206;-64
2021/03/22 01:58:15;;;;;;;15.37;3.60;;;3.80;99.90;;;;;;4953635;28;20699;-64
2021/03/22 02:00:41;;;;;;;10.03;3.83;;;3.90;99.90;;;;;;4956068;28;20636;-66
2021/03/22 02:03:16;;;;;;;14.73;4.60;;;3.80;99.90;;;;;;4957448;28;20636;-63
2021/03/22 02:05:49;;;;;;;23.30;5.73;;;3.80;99.90;;;;;;4960239;28;20185;-64
2021/03/22 02:08:19;;;;;;;14.73;3.80;;;3.80;99.90;;;;;;4957676;28;20937;-64
2021/03/22 02:11:01;;;;;;;16.87;4.13;;;3.70;99.90;;;;;;4955586;28;20739;-63
2021/03/22 02:13:36;;;;;;;20.53;5.10;;;3.70;99.90;;;;;;4965906;28;20754;-66
2021/03/22 02:16:21;;;;;;;11.20;4.60;;;3.70;99.90;;;;;;4965794;28;20628;-64
2021/03/22 02:18:58;;;;;;;14.97;4.90;;;3.70;99.90;;;;;;4959167;28;21239;-64
2021/03/22 02:22:04;;;;;;;13.40;4.10;;;3.70;99.90;;;;;;4959769;28;20693;-64
2021/03/22 02:24:59;;;;;;;11.70;4.43;;;3.80;99.90;;;;;;4954371;28;20651;-63
2021/03/22 02:28:16;;;;;;;12.50;4.93;;;3.80;99.90;;;;;;4958896;28;21002;-64
2021/03/22 02:31:18;;;;;;;14.00;4.00;;;3.70;99.90;;;;;;4953727;28;20660;-63
2021/03/22 02:34:05;;;;;;;12.17;3.87;;;3.70;99.90;;;;;;4952405;28;20644;-64
2021/03/22 02:37:02;;;;;;;10.00;4.27;;;3.60;99.90;;;;;;4953898;28;20730;-63
2021/03/22 02:40:03;;;;;;;11.57;4.23;;;3.60;99.90;;;;;;4956625;28;20671;-63
2021/03/22 02:42:36;;;;;;;11.87;3.90;;;3.60;99.90;;;;;;4938705;28;20671;-64
2021/03/22 02:45:25;;;;;;;10.57;3.50;;;3.60;99.90;;;;;;4956731;28;20715;-63
2021/03/22 02:47:58;;;;;;;13.50;3.97;;;3.60;99.90;;;;;;4962011;28;20739;-65
2021/03/22 02:50:29;;;;;;;14.93;4.00;;;3.50;99.90;;;;;;4955930;28;20767;-63
2021/03/22 02:53:19;;;;;;;15.90;4.20;;;3.50;99.90;;;;;;4949063;28;20667;-64
2021/03/22 02:56:06;;;;;;;12.30;3.90;;;3.50;99.90;;;;;;4954192;28;20767;-64
2021/03/22 02:59:00;;;;;;;13.40;4.07;;;3.50;99.90;;;;;;4964703;28;21541;-63
2021/03/22 03:01:32;;;;;;;15.70;3.87;;;3.60;99.90;;;;;;4939135;28;20902;-63
2021/03/22 03:04:05;;;;;;;13.70;4.50;;;3.50;99.90;;;;;;4953664;28;20671;-64
2021/03/22 03:07:02;;;;;;;11.10;3.97;;;3.50;99.90;;;;;;4955974;28;20644;-63
2021/03/22 03:09:44;;;;;;;15.97;4.20;;;3.50;99.90;;;;;;4941181;28;23195;-63
2021/03/22 03:12:29;;;;;;;11.50;4.10;;;3.50;99.90;;;;;;4953661;28;20671;-63
2021/03/22 03:15:00;;;;;;;8.43;3.60;;;3.40;99.90;;;;;;4978257;28;20691;-63
2021/03/22 03:17:39;;;;;;;10.57;4.13;;;3.40;99.90;;;;;;4957423;28;20737;-64
2021/03/22 03:20:23;;;;;;;21.40;4.87;;;3.40;99.90;;;;;;4961278;28;20957;-64
2021/03/22 03:22:52;;;;;;;13.30;4.20;;;3.40;99.90;;;;;;4956196;28;20654;-63
2021/03/22 03:25:22;;;;;;;15.57;4.17;;;3.40;99.90;;;;;;4955575;28;20669;-63
2021/03/22 03:28:08;;;;;;;11.97;5.40;;;3.30;99.90;;;;;;4950195;28;21474;-63
2021/03/22 03:30:36;;;;;;;13.13;4.00;;;3.30;99.90;;;;;;4956502;28;23268;-63
2021/03/22 03:33:03;;;;;;;13.03;3.50;;;3.30;99.90;;;;;;4951003;28;21060;-63
2021/03/22 03:35:36;;;;;;;18.73;5.03;;;3.30;99.90;;;;;;4966937;28;21323;-64
2021/03/22 03:38:30;;;;;;;8.37;3.87;;;3.30;99.90;;;;;;4954396;28;20664;-63
2021/03/22 03:40:58;;;;;;;9.33;3.90;;;3.40;99.90;;;;;;4956826;28;20612;-63
2021/03/22 03:43:26;;;;;;;13.23;4.00;;;3.50;99.90;;;;;;4953368;28;20970;-67
2021/03/22 03:46:03;;;;;;;12.20;4.27;;;3.40;99.90;;;;;;4953718;28;23302;-66
2021/03/22 03:48:48;;;;;;;11.43;4.30;;;3.30;99.90;;;;;;4957450;28;20686;-63
2021/03/22 03:51:19;;;;;;;11.10;4.97;;;3.30;99.90;;;;;;4951144;28;20595;-63
2021/03/22 03:53:49;;;;;;;10.57;4.07;;;3.30;99.90;;;;;;4953847;28;21506;-63
2021/03/22 03:56:25;;;;;;;14.10;4.07;;;3.30;99.90;;;;;;4957983;28;21265;-64
2021/03/22 03:58:58;;;;;;;12.17;4.47;;;3.40;99.90;;;;;;4954301;28;21404;-63
2021/03/22 04:01:27;;;;;;;14.43;4.73;;;3.30;99.90;;;;;;4953759;28;20638;-63
2021/03/22 04:03:56;;;;;;;16.20;4.43;;;3.40;99.90;;;;;;4952215;28;20802;-63
2021/03/22 04:06:28;;;;;;;12.00;4.60;;;3.40;99.90;;;;;;4952988;28;20623;-68
2021/03/22 04:09:12;;;;;;;21.37;5.33;;;3.40;99.90;;;;;;4954016;28;20744;-63
2021/03/22 04:11:56;;;;;;;13.73;4.77;;;3.40;99.90;;;;;;4968306;28;20636;-64
2021/03/22 04:14:28;;;;;;;14.73;4.60;;;3.40;99.90;;;;;;4950272;28;20834;-66
2021/03/22 04:16:56;;;;;;;10.57;3.97;;;3.30;99.90;;;;;;4961573;28;21091;-64
2021/03/22 04:19:42;;;;;;;12.53;4.20;;;3.20;99.90;;;;;;4965954;28;20969;-63
2021/03/22 04:22:29;;;;;;;13.17;4.37;;;3.20;99.90;;;;;;4951347;28;20623;-63
2021/03/22 04:25:18;;;;;;;18.43;4.27;;;3.20;99.90;;;;;;4915047;28;21210;-64
2021/03/22 04:27:56;;;;;;;9.10;4.17;;;3.20;99.90;;;;;;4935768;28;20754;-64
2021/03/22 04:30:22;;;;;;;12.67;4.33;;;3.10;99.90;;;;;;4943557;28;22864;-65
2021/03/22 04:32:55;;;;;;;13.83;4.20;;;3.10;99.90;;;;;;4934026;28;21035;-63
2021/03/22 04:35:27;;;;;;;14.03;4.30;;;3.10;99.90;;;;;;4936650;28;20625;-67
2021/03/22 04:37:58;;;;;;;13.20;3.90;;;3.10;99.90;;;;;;4949746;28;20927;-63
2021/03/22 04:40:29;;;;;;;11.00;4.10;;;3.10;99.90;;;;;;4942251;28;20755;-64
2021/03/22 04:42:57;;;;;;;11.80;4.10;;;3.10;99.90;;;;;;4940202;28;21304;-64
2021/03/22 04:45:32;;;;;;;13.50;4.47;;;3.00;99.90;;;;;;4940262;28;21326;-63
2021/03/22 04:48:00;;;;;;;13.03;4.17;;;3.00;99.90;;;;;;4938048;28;20656;-64
2021/03/22 04:50:48;;;;;;;11.80;4.63;;;3.00;99.90;;;;;;4941776;28;21417;-64
2021/03/22 04:53:22;;;;;;;12.10;4.20;;;3.00;99.90;;;;;;4951893;28;20652;-63
2021/03/22 04:55:47;;;;;;;10.83;4.17;;;3.10;99.90;;;;;;4950699;28;20632;-64
2021/03/22 04:58:13;;;;;;;14.23;4.70;;;3.10;99.90;;;;;;4939229;28;21761;-64
2021/03/22 05:00:55;;;;;;;12.57;3.97;;;3.10;99.90;;;;;;4958675;28;20189;-63
2021/03/22 05:03:26;;;;;;;14.43;4.60;;;3.10;99.90;;;;;;4939789;28;20652;-64
2021/03/22 05:05:54;;;;;;;20.47;5.47;;;3.20;99.90;;;;;;4943666;28;20736;-63
2021/03/22 05:08:31;;;;;;;23.33;5.10;;;3.20;99.90;;;;;;4959527;28;21074;-63
2021/03/22 05:11:00;;;;;;;13.93;4.50;;;3.20;99.90;;;;;;4948309;28;20635;-65
2021/03/22 05:13:31;;;;;;;15.07;4.70;;;3.30;99.90;;;;;;4951253;28;20703;-64
2021/03/22 05:16:05;;;;;;;17.60;6.50;;;3.40;99.90;;;;;;4954442;28;21318;-63
2021/03/22 05:18:51;;;;;;;15.33;5.43;;;3.30;99.90;;;;;;4970262;28;20631;-63
2021/03/22 05:21:22;;;;;;;17.23;5.47;;;3.40;99.90;;;;;;4934423;28;20625;-63
2021/03/22 05:23:53;;;;;;;15.47;5.50;;;3.50;99.90;;;;;;4956835;28;20758;-63
2021/03/22 05:26:21;;;;;;;17.30;5.53;;;3.60;99.90;;;;;;4945108;28;21057;-63
2021/03/22 05:29:01;;;;;;;16.23;5.13;;;3.70;99.90;;;;;;4948550;28;20636;-63
2021/03/22 05:31:28;;;;;;;17.77;5.90;;;3.70;99.90;;;;;;4942756;28;20702;-63
2021/03/22 05:34:08;;;;;;;18.77;6.37;;;3.70;99.90;;;;;;4960754;28;22756;-64
2021/03/22 05:36:36;;;;;;;14.70;5.70;;;3.70;99.90;;;;;;4961527;28;21297;-63
2021/03/22 05:39:08;;;;;;;16.93;6.60;;;3.80;99.90;;;;;;4945107;28;20703;-63
2021/03/22 05:41:48;;;;;;;15.23;5.80;;;3.80;99.90;;;;;;4967102;28;20715;-63
2021/03/22 05:46:59;;;;;;;12.90;5.67;;;3.90;99.90;;;;;;4979500;23;20817;-64
2021/03/22 05:49:39;;;;;;;14.23;6.00;;;3.90;99.90;;;;;;4944395;28;20655;-64
2021/03/22 05:52:24;;;;;;;17.63;5.63;;;4.00;99.90;;;;;;4953358;28;21406;-63
2021/03/22 05:55:13;;;;;;;15.33;6.10;;;4.00;99.90;;;;;;4967498;28;20663;-62
2021/03/22 05:57:47;;;;;;;18.00;6.07;;;4.00;99.90;;;;;;4963265;28;20683;-63
2021/03/22 06:00:33;;;;;;;16.40;6.70;;;4.00;99.90;;;;;;4951027;28;20620;-63
2021/03/22 06:03:29;;;;;;;18.00;5.53;;;4.00;99.90;;;;;;4963876;28;20650;-63
2021/03/22 06:06:48;;;;;;;12.50;5.50;;;4.20;99.90;;;;;;4957530;28;22050;-62
2021/03/22 06:09:30;;;;;;;18.47;6.10;;;4.20;99.90;;;;;;4936450;28;20618;-65
2021/03/22 06:12:08;;;;;;;14.83;6.07;;;4.20;99.90;;;;;;4964546;28;20584;-63
2021/03/22 06:14:46;;;;;;;16.50;6.50;;;4.10;99.90;;;;;;4955574;28;20573;-64
2021/03/22 06:17:29;;;;;;;14.43;5.30;;;4.10;99.90;;;;;;4959908;28;20984;-62
2021/03/22 06:19:57;;;;;;;14.90;6.17;;;4.20;99.90;;;;;;4964123;28;20691;-63
2021/03/22 06:22:29;;;;;;;14.53;6.17;;;4.20;99.90;;;;;;4940256;28;20636;-63
2021/03/22 06:24:57;;;;;;;13.30;6.20;;;4.20;99.90;;;;;;4961315;28;20640;-65
2021/03/22 06:27:23;;;;;;;13.67;5.77;;;4.20;99.90;;;;;;4944955;28;21238;-64
2021/03/22 06:29:52;;;;;;;16.63;6.37;;;4.30;99.90;;;;;;4957433;28;21224;-63
2021/03/22 06:32:23;;;;;;;19.27;6.40;;;4.30;99.90;;;;;;4940439;28;20647;-63
2021/03/22 06:34:58;;;;;;;12.53;5.20;;;4.40;99.90;;;;;;4964145;28;20656;-64
2021/03/22 06:37:27;;;;;;;13.97;6.37;;;4.30;99.90;;;;;;4943702;28;20655;-63
2021/03/22 06:40:14;;;;;;;11.13;6.17;;;4.40;99.90;;;;;;4951476;28;23367;-62
2021/03/22 06:42:42;;;;;;;13.10;5.63;;;4.40;99.90;;;;;;4933336;28;22892;-63
2021/03/22 06:45:29;;;;;;;19.80;6.70;;;4.40;99.90;;;;;;4940053;28;21229;-63
2021/03/22 06:48:35;;;;;;;18.30;6.13;;;4.40;99.90;;;;;;4937149;28;20673;-66
2021/03/22 06:51:03;;;;;;;16.20;6.23;;;4.50;99.90;;;;;;4859094;29;20635;-63
2021/03/22 06:53:39;;;;;;;14.93;5.60;;;4.50;99.90;;;;;;4860776;29;20648;-63
2021/03/22 06:57:00;;;;;;;20.70;5.97;;;4.60;99.90;;;;;;4867151;29;20690;-63
2021/03/22 06:59:25;;;;;;;13.33;6.17;;;4.60;99.90;;;;;;4857965;29;21197;-64
2021/03/22 07:01:53;;;;;;;15.87;5.57;;;4.70;99.90;;;;;;4866811;29;20752;-63
2021/03/22 07:04:34;;;;;;;12.03;6.13;;;4.70;99.90;;;;;;4850856;29;20791;-63
2021/03/22 07:07:08;;;;;;;9.30;5.30;;;4.80;99.90;;;;;;4849826;29;20597;-63
2021/03/22 07:09:37;;;;;;;12.73;7.00;;;4.70;99.90;;;;;;4863814;29;20667;-64
2021/03/22 07:12:05;;;;;;;16.57;5.77;;;4.80;99.90;;;;;;4857829;29;20663;-64
2021/03/22 07:14:31;;;;;;;11.90;5.70;;;4.80;99.90;;;;;;4861422;29;21003;-63
2021/03/22 07:17:14;;;;;;;13.83;5.67;;;4.90;99.90;;;;;;4862658;29;21859;-63
2021/03/22 07:19:40;;;;;;;13.57;5.60;;;4.80;99.90;;;;;;4858077;29;20861;-65
2021/03/22 07:22:21;;;;;;;11.40;5.13;;;4.80;99.90;;;;;;4865645;28;20722;-63
2021/03/22 07:24:55;;;;;;;11.83;5.30;;;4.90;99.90;;;;;;4876336;28;20211;-62
2021/03/22 07:27:20;;;;;;;12.87;5.30;;;5.00;99.90;;;;;;4873495;28;20624;-63
2021/03/22 07:30:07;;;;;;;10.63;5.07;;;5.00;99.90;;;;;;4895732;28;21155;-64
2021/03/22 07:32:45;;;;;;;14.60;6.13;;;5.00;99.90;;;;;;4941197;28;20217;-63
2021/03/22 07:35:43;;;;;;;11.67;5.77;;;5.10;99.90;;;;;;4935059;28;20909;-63
2021/03/22 07:38:22;;;;;;;14.63;6.20;;;5.20;99.90;;;;;;4938673;28;21047;-63
2021/03/22 07:40:53;;;;;;;16.10;5.90;;;5.30;99.90;;;;;;4925608;28;22329;-64
2021/03/22 07:43:33;;;;;;;11.57;5.50;;;5.30;99.90;;;;;;4944261;28;23487;-63
2021/03/22 07:46:11;;;;;;;16.43;5.40;;;5.40;99.90;;;;;;4935063;28;21462;-63
2021/03/22 07:49:44;;;;;;;14.50;5.93;;;5.50;99.90;;;;;;4931373;28;20655;-65
2021/03/22 07:52:21;;;;;;;13.07;5.70;;;5.50;99.90;;;;;;4843684;29;21458;-66
2021/03/22 07:54:54;;;;;;;18.37;5.80;;;5.60;99.90;;;;;;4839230;29;20659;-66
2021/03/22 07:57:28;;;;;;;9.60;5.40;;;5.60;99.90;;;;;;4839888;29;21427;-63
2021/03/22 08:00:20;;;;;;;11.70;5.33;;;5.70;99.90;;;;;;4839539;29;20752;-64
2021/03/22 08:03:20;;;;;;;11.47;5.50;;;5.70;99.90;;;;;;4840730;29;20833;-63
2021/03/22 08:05:49;;;;;;;12.87;5.60;;;5.80;99.90;;;;;;4823565;29;21250;-65
2021/03/22 08:08:25;;;;;;;14.03;5.50;;;5.90;99.90;;;;;;4836678;29;20629;-63
2021/03/22 08:11:04;;;;;;;12.90;5.87;;;6.00;99.90;;;;;;4837916;29;21221;-66
2021/03/22 08:13:40;;;;;;;17.77;5.93;;;6.10;99.90;;;;;;4838195;29;20676;-62
2021/03/22 08:16:21;;;;;;;11.00;6.07;;;6.10;99.90;;;;;;4836804;29;20668;-64
2021/03/22 08:18:49;;;;;;;10.60;5.20;;;6.10;99.90;;;;;;4843216;29;20651;-64
2021/03/22 08:21:49;;;;;;;13.00;5.37;;;6.20;99.90;;;;;;4830697;29;20768;-64
2021/03/22 08:24:26;;;;;;;14.90;4.97;;;6.20;99.90;;;;;;4933584;28;21462;-62
2021/03/22 08:27:10;;;;;;;14.73;5.83;;;6.30;99.90;;;;;;4957606;28;20722;-64
2021/03/22 08:29:41;;;;;;;11.67;5.33;;;6.20;99.90;;;;;;4922001;28;21366;-65
2021/03/22 08:32:29;;;;;;;9.87;4.63;;;6.30;99.90;;;;;;4939799;28;20617;-63
2021/03/22 08:35:12;;;;;;;10.50;5.03;;;6.30;99.90;;;;;;4916104;28;20640;-63
2021/03/22 08:37:59;;;;;;;12.37;4.90;;;6.30;99.90;;;;;;4922564;28;20660;-65
2021/03/22 08:40:52;;;;;;;14.63;4.90;;;6.30;99.90;;;;;;4923274;28;21009;-63
2021/03/22 08:43:39;;;;;;;10.40;4.83;;;6.40;99.90;;;;;;4918727;28;21210;-63
2021/03/22 08:46:28;;;;;;;11.50;5.13;;;6.30;99.90;;;;;;4933999;28;20695;-63
2021/03/22 08:48:54;;;;;;;10.47;5.33;;;6.40;99.90;;;;;;4941441;28;20620;-64
2021/03/22 08:51:27;;;;;;;10.40;4.47;;;6.50;99.90;;;;;;4923214;28;21163;-63
2021/03/22 08:53:54;;;;;;;10.40;4.53;;;6.60;99.90;;;;;;4938692;28;20799;-64
2021/03/22 08:56:28;;;;;;;8.90;4.10;;;6.60;99.90;;;;;;4936560;28;20713;-66
2021/03/22 08:59:00;;;;;;;10.27;4.43;;;6.70;99.90;;;;;;4935372;28;20651;-64
2021/03/22 09:01:40;;;;;;;13.50;4.30;;;6.70;99.90;;;;;;4920129;28;21316;-63
2021/03/22 09:04:31;;;;;;;10.43;4.40;;;6.70;99.90;;;;;;4924027;28;20644;-63
2021/03/22 09:07:25;;;;;;;8.60;4.50;;;6.80;99.90;;;;;;4925841;28;21020;-64
2021/03/22 09:09:51;;;;;;;6.50;4.50;;;6.90;99.90;;;;;;4916327;28;20628;-65
2021/03/22 09:12:32;;;;;;;10.43;4.73;;;7.00;99.90;;;;;;4939620;28;20663;-64
2021/03/22 09:14:59;;;;;;;8.13;3.93;;;7.00;99.90;;;;;;4945594;28;20212;-63
2021/03/22 09:17:45;;;;;;;6.33;4.37;;;7.10;99.90;;;;;;4934682;28;20645;-62
2021/03/22 09:20:22;;;;;;;11.00;4.70;;;7.10;99.90;;;;;;4937855;28;21253;-62
2021/03/22 09:22:55;;;;;;;7.73;4.97;;;7.10;99.90;;;;;;4935930;28;20636;-62
2021/03/22 09:25:45;;;;;;;6.57;4.20;;;7.10;99.90;;;;;;4944573;28;21336;-63
2021/03/22 09:28:26;;;;;;;18.80;5.03;;;7.20;99.90;;;;;;4930739;28;21257;-65
2021/03/22 09:30:56;;;;;;;8.60;4.40;;;7.30;99.90;;;;;;4948986;28;20615;-67
2021/03/22 09:33:50;;;;;;;13.60;4.80;;;7.40;99.90;;;;;;4937541;28;22503;-65
2021/03/22 09:36:29;;;;;;;9.10;4.93;;;7.50;99.90;;;;;;4936849;28;20703;-63
2021/03/22 09:38:56;;;;;;;7.13;4.03;;;7.50;99.90;;;;;;4916612;28;20739;-64
2021/03/22 09:41:53;;;;;;;7.40;3.90;;;7.50;99.90;;;;;;4922335;28;20628;-63
2021/03/22 09:44:22;;;;;;;8.83;4.00;;;7.50;99.90;;;;;;4937477;28;20749;-63
2021/03/22 09:47:04;;;;;;;10.23;3.70;;;7.60;99.90;;;;;;4920833;28;21086;-64
2021/03/22 09:49:35;;;;;;;16.00;4.47;;;7.70;99.90;;;;;;4918343;28;20624;-62
2021/03/22 09:52:16;;;;;;;10.63;4.50;;;7.70;99.90;;;;;;4937967;28;20602;-63
2021/03/22 09:54:44;;;;;;;6.30;3.43;;;7.80;99.90;;;;;;4948159;28;21426;-63
2021/03/22 09:57:15;;;;;;;9.13;4.23;;;7.80;99.90;;;;;;4944651;28;20640;-64
2021/03/22 10:00:18;;;;;;;9.93;4.20;;;7.90;99.90;;;;;;4962151;28;23531;-63
2021/03/22 10:02:51;;;;;;;7.67;3.90;;;7.90;99.90;;;;;;4940556;28;20743;-64
2021/03/22 10:05:23;;;;;;;8.97;3.67;;;8.00;99.90;;;;;;4929266;28;20645;-65
2021/03/22 10:08:00;;;;;;;7.60;3.40;;;8.10;99.90;;;;;;4941224;28;22254;-62
2021/03/22 10:10:35;;;;;;;7.17;3.40;;;8.20;99.90;;;;;;4938567;28;20706;-64
2021/03/22 10:13:07;;;;;;;4.90;3.80;;;8.30;99.90;;;;;;4937603;28;20985;-66
2021/03/22 10:15:46;;;;;;;7.23;4.20;;;8.40;99.90;;;;;;4937823;28;20690;-65
2021/03/22 10:18:32;;;;;;;7.27;3.80;;;8.40;99.90;;;;;;4947047;28;20684;-67
2021/03/22 10:21:10;;;;;;;5.97;3.60;;;8.60;99.90;;;;;;4940105;28;20714;-65
2021/03/22 10:24:03;;;;;;;6.17;3.70;;;8.70;99.90;;;;;;4920136;28;20655;-63
2021/03/22 10:26:41;;;;;;;8.10;3.30;;;8.90;99.90;;;;;;4939918;28;20690;-67
2021/03/22 10:29:20;;;;;;;3.50;2.67;;;9.10;99.90;;;;;;4954154;28;21233;-67
2021/03/22 10:32:05;;;;;;;7.17;3.33;;;9.10;99.90;;;;;;4952056;28;20667;-68
2021/03/22 10:34:52;;;;;;;5.10;3.00;;;9.20;99.90;;;;;;4945310;28;20647;-69
2021/03/22 10:37:29;;;;;;;6.90;2.70;;;9.20;99.90;;;;;;4931830;28;20773;-68
2021/03/22 10:40:04;;;;;;;6.97;3.70;;;9.30;99.90;;;;;;4934718;28;20713;-67
2021/03/22 10:42:30;;;;;;;7.20;3.33;;;9.40;99.90;;;;;;4951952;28;20643;-67
2021/03/22 10:44:56;;;;;;;6.80;2.93;;;9.50;99.90;;;;;;4932143;28;20755;-67
2021/03/22 10:47:24;;;;;;;4.47;3.13;;;9.50;99.90;;;;;;4939658;28;20197;-68
2021/03/22 10:49:51;;;;;;;4.40;2.80;;;9.70;99.90;;;;;;4938235;28;20636;-67
2021/03/22 10:52:32;;;;;;;4.83;2.60;;;9.80;99.90;;;;;;4926282;28;20652;-68
2021/03/22 10:54:58;;;;;;;6.47;2.70;;;9.90;99.90;;;;;;4950874;28;20666;-68
2021/03/22 10:57:36;;;;;;;5.37;3.00;;;10.00;99.90;;;;;;4960038;28;20656;-68
2021/03/22 11:00:40;;;;;;;4.57;2.73;;;10.10;99.90;;;;;;4958405;28;20197;-67
2021/03/22 11:03:07;;;;;;;4.70;3.00;;;10.30;99.90;;;;;;4948273;28;20786;-67
2021/03/22 11:05:43;;;;;;;6.13;3.07;;;10.40;99.90;;;;;;4950699;28;21338;-67
2021/03/22 11:08:26;;;;;;;5.00;2.90;;;10.50;99.90;;;;;;4919377;28;20620;-68
2021/03/22 11:11:03;;;;;;;7.20;3.20;;;10.50;99.90;;;;;;4944491;28;20617;-68
2021/03/22 11:13:31;;;;;;;3.07;2.60;;;10.50;99.90;;;;;;4942839;28;20809;-68
2021/03/22 11:15:57;;;;;;;5.97;3.13;;;10.60;99.90;;;;;;4938323;28;20664;-67
2021/03/22 11:18:24;;;;;;;5.67;2.93;;;10.70;99.90;;;;;;4945522;28;20900;-67
2021/03/22 11:20:55;;;;;;;4.47;2.40;;;10.90;99.90;;;;;;4950294;28;22031;-66
2021/03/22 11:23:27;;;;;;;5.00;2.60;;;11.00;99.90;;;;;;4945439;28;20652;-68
2021/03/22 11:25:58;;;;;;;4.77;2.60;;;11.20;99.90;;;;;;4935415;28;22481;-67
2021/03/22 11:28:27;;;;;;;10.33;3.93;;;11.30;99.90;;;;;;4942206;28;21387;-67
2021/03/22 11:30:53;;;;;;;7.63;3.03;;;11.50;99.90;;;;;;4939371;28;20621;-68
2021/03/22 11:33:29;;;;;;;6.07;2.73;;;11.50;99.90;;;;;;4943316;28;20747;-67
2021/03/22 11:36:07;;;;;;;5.40;3.00;;;11.50;99.90;;;;;;4929030;28;20220;-67
2021/03/22 11:38:42;;;;;;;6.47;3.00;;;11.50;99.90;;;;;;4948764;28;20670;-66
2021/03/22 11:41:36;;;;;;;17.03;3.47;;;11.70;99.90;;;;;;4942034;28;20616;-67
2021/03/22 11:44:13;;;;;;;6.50;3.60;;;11.80;99.90;;;;;;4947827;28;20644;-62
2021/03/22 11:46:39;;;;;;;5.67;3.50;;;11.70;99.90;;;;;;4922094;28;20963;-62
2021/03/22 11:49:25;;;;;;;6.83;3.10;;;11.60;99.90;;;;;;4938297;28;20616;-65
2021/03/22 11:51:51;;;;;;;4.10;3.00;;;11.50;99.90;;;;;;4948488;28;20557;-66
2021/03/22 11:54:16;;;;;;;4.40;2.80;;;11.50;99.90;;;;;;4927320;28;23422;-66
2021/03/22 11:56:57;;;;;;;3.37;2.57;;;11.70;99.90;;;;;;4937664;28;20659;-65
2021/03/22 11:59:23;;;;;;;7.30;2.87;;;11.90;99.90;;;;;;4940918;28;20652;-66
2021/03/22 12:02:14;;;;;;;5.07;3.47;;;11.90;99.90;;;;;;4950360;28;20626;-68
2021/03/22 12:04:53;;;;;;;4.03;3.07;;;11.90;99.90;;;;;;4954378;28;21138;-67
2021/03/22 12:07:36;;;;;;;7.53;3.93;;;12.10;99.90;;;;;;4920351;28;20998;-67
2021/03/22 12:10:04;;;;;;;5.90;3.60;;;12.10;99.90;;;;;;4929729;28;20651;-68
2021/03/22 12:12:30;;;;;;;7.10;3.93;;;12.10;99.90;;;;;;4921405;28;20648;-67
2021/03/22 12:14:55;;;;;;;4.37;3.30;;;12.20;99.90;;;;;;4937054;28;21718;-67
2021/03/22 12:17:29;;;;;;;34.20;5.23;;;12.40;99.90;;;;;;4933193;28;21391;-68
2021/03/22 12:19:55;;;;;;;4.97;3.43;;;12.70;99.90;;;;;;4934570;28;20271;-67
2021/03/22 12:22:23;;;;;;;15.30;3.30;;;12.70;99.90;;;;;;4930504;28;20694;-67
2021/03/22 12:24:50;;;;;;;4.93;3.00;;;12.80;99.90;;;;;;4921693;28;21222;-66
2021/03/22 12:27:18;;;;;;;4.03;3.17;;;12.80;99.90;;;;;;4930577;28;20613;-67
2021/03/22 12:29:45;;;;;;;5.10;2.93;;;12.90;99.90;;;;;;4936076;28;22698;-67
2021/03/22 12:32:15;;;;;;;5.13;3.27;;;12.80;99.90;;;;;;4934214;28;20746;-68
2021/03/22 12:34:40;;;;;;;4.80;3.40;;;12.70;99.90;;;;;;4937944;28;21018;-68
2021/03/22 12:37:06;;;;;;;5.03;3.33;;;12.80;99.90;;;;;;4931510;28;20734;-66
2021/03/22 12:39:35;;;;;;;5.80;4.10;;;12.90;99.90;;;;;;4938900;28;20288;-67
2021/03/22 12:42:05;;;;;;;4.90;3.70;;;12.80;99.90;;;;;;4932663;28;20817;-67
2021/03/22 12:44:32;;;;;;;6.00;4.00;;;12.70;99.90;;;;;;4936302;28;20718;-68
2021/03/22 12:46:57;;;;;;;5.17;4.23;;;12.70;99.90;;;;;;4931519;28;20613;-66
2021/03/22 12:49:24;;;;;;;5.60;3.57;;;12.70;99.90;;;;;;4928343;28;20984;-66
2021/03/22 12:51:51;;;;;;;4.57;3.10;;;12.60;99.90;;;;;;4919297;28;20193;-67
2021/03/22 12:54:16;;;;;;;4.67;3.53;;;12.70;99.90;;;;;;4940284;28;20636;-66
2021/03/22 12:56:42;;;;;;;5.80;3.63;;;12.90;99.90;;;;;;4917027;28;20990;-68
2021/03/22 12:59:26;;;;;;;6.47;3.70;;;12.90;99.90;;;;;;4929122;28;20291;-66
2021/03/22 13:01:52;;;;;;;4.57;2.90;;;12.90;99.90;;;;;;4944149;28;20596;-68
2021/03/22 13:04:17;;;;;;;4.17;2.50;;;13.50;99.90;;;;;;4923755;28;21133;-67
2021/03/22 13:06:45;;;;;;;8.97;3.23;;;13.80;99.90;;;;;;4918571;28;20209;-68
2021/03/22 13:09:10;;;;;;;5.73;3.07;;;13.90;99.90;;;;;;4939710;28;20193;-68
2021/03/22 13:11:36;;;;;;;3.30;3.00;;;13.90;99.90;;;;;;4937661;28;20781;-69
2021/03/22 13:14:02;;;;;;;7.40;3.20;;;13.90;99.90;;;;;;4940943;28;20732;-69
2021/03/22 13:16:27;;;;;;;3.83;3.00;;;14.20;99.90;;;;;;4942513;28;20265;-69
2021/03/22 13:18:53;;;;;;;4.10;3.70;;;14.50;99.90;;;;;;4940479;28;20236;-68
2021/03/22 13:21:19;;;;;;;7.33;3.67;;;14.20;99.90;;;;;;4953317;28;20893;-68
2021/03/22 13:23:46;;;;;;;3.93;3.53;;;14.00;99.90;;;;;;4939821;28;20348;-67
2021/03/22 13:26:15;;;;;;;5.40;3.00;;;13.80;99.90;;;;;;4942220;28;20225;-67
2021/03/22 13:28:44;;;;;;;3.60;3.30;;;13.60;99.90;;;;;;4919199;28;20723;-67
2021/03/22 13:31:15;;;;;;;4.20;2.90;;;13.30;99.90;;;;;;4923936;28;20770;-67
2021/03/22 13:33:41;;;;;;;5.87;3.63;;;13.00;99.90;;;;;;4922371;28;20680;-69
2021/03/22 13:36:13;;;;;;;4.80;4.07;;;13.10;99.90;;;;;;4937132;28;20660;-66